createdAt,value
2018-09-15T00:00:25.261Z,14.00
2018-09-15T00:01:25.251Z,13.97
2018-09-15T00:02:25.238Z,13.95
2018-09-15T00:03:25.247Z,13.95
2018-09-15T00:04:25.231Z,13.96
2018-09-15T00:05:25.251Z,13.92
2018-09-15T00:06:25.235Z,13.89
2018-09-15T00:07:25.188Z,13.93
2018-09-15T00:08:25.170Z,13.92
2018-09-15T00:09:25.165Z,13.90
2018-09-15T00:10:25.152Z,13.92
2018-09-15T00:11:25.143Z,13.81
2018-09-15T00:12:25.162Z,13.77
2018-09-15T00:13:25.146Z,13.89
2018-09-15T00:14:25.105Z,13.86
2018-09-15T00:15:25.098Z,13.90
2018-09-15T00:16:25.088Z,13.89
2018-09-15T00:17:25.095Z,13.89
2018-09-15T00:18:25.080Z,13.92
2018-09-15T00:19:25.057Z,13.90
2018-09-15T00:20:25.069Z,13.95
2018-09-15T00:21:25.028Z,13.85
2018-09-15T00:22:25.049Z,13.92
2018-09-15T00:23:25.010Z,13.87
2018-09-15T00:24:25.019Z,13.90
2018-09-15T00:25:24.987Z,13.96
2018-09-15T00:26:24.977Z,13.93
2018-09-15T00:27:25.006Z,13.90
2018-09-15T00:28:24.962Z,13.92
2018-09-15T00:29:24.941Z,13.97
2018-09-15T00:30:24.954Z,14.04
2018-09-15T00:31:24.920Z,13.96
2018-09-15T00:32:24.912Z,14.03
2018-09-15T00:33:24.894Z,14.10
2018-09-15T00:34:24.935Z,14.14
2018-09-15T00:35:24.901Z,14.04
2018-09-15T00:36:24.875Z,14.05
2018-09-15T00:37:24.854Z,14.10
2018-09-15T00:38:24.848Z,14.07
2018-09-15T00:39:24.831Z,14.05
2018-09-15T00:40:24.837Z,14.00
2018-09-15T00:41:24.842Z,14.05
2018-09-15T00:42:24.815Z,14.03
2018-09-15T00:43:24.786Z,14.07
2018-09-15T00:44:24.776Z,14.07
2018-09-15T00:45:24.765Z,14.10
2018-09-15T00:46:24.787Z,14.14
2018-09-15T00:47:24.742Z,14.07
2018-09-15T00:48:24.732Z,14.05
2018-09-15T00:49:24.757Z,14.10
2018-09-15T00:50:24.710Z,14.08
2018-09-15T00:51:24.698Z,14.03
2018-09-15T00:52:24.707Z,13.93
2018-09-15T00:53:24.679Z,13.96
2018-09-15T00:54:24.680Z,14.00
2018-09-15T00:55:24.714Z,13.93
2018-09-15T00:56:24.643Z,13.96
2018-09-15T00:57:24.632Z,13.92
2018-09-15T00:58:24.647Z,13.96
2018-09-15T00:59:24.621Z,13.93
2018-09-15T01:00:24.599Z,13.96
2018-09-15T01:01:24.721Z,13.95
2018-09-15T01:02:24.674Z,14.00
2018-09-15T01:03:24.632Z,14.07
2018-09-15T01:04:24.574Z,14.05
2018-09-15T01:05:24.564Z,14.08
2018-09-15T01:06:24.533Z,13.97
2018-09-15T01:07:24.531Z,14.00
2018-09-15T01:08:24.509Z,13.93
2018-09-15T01:09:24.504Z,13.96
2018-09-15T01:10:24.577Z,13.90
2018-09-15T01:11:24.495Z,13.97
2018-09-15T01:12:24.485Z,13.93
2018-09-15T01:13:24.469Z,13.92
2018-09-15T01:14:24.548Z,13.93
2018-09-15T01:15:24.433Z,13.92
2018-09-15T01:16:24.462Z,13.97
2018-09-15T01:17:24.500Z,13.89
2018-09-15T01:18:24.427Z,13.95
2018-09-15T01:19:24.392Z,13.92
2018-09-15T01:20:24.383Z,13.89
2018-09-15T01:21:24.412Z,13.89
2018-09-15T01:22:24.359Z,13.95
2018-09-15T01:23:24.346Z,13.78
2018-09-15T01:24:24.356Z,13.74
2018-09-15T01:25:24.324Z,13.89
2018-09-15T01:26:24.343Z,13.81
2018-09-15T01:27:24.306Z,13.77
2018-09-15T01:28:24.291Z,13.72
2018-09-15T01:29:24.282Z,13.67
2018-09-15T01:30:24.286Z,13.74
2018-09-15T01:31:24.263Z,13.81
2018-09-15T01:32:24.247Z,13.70
2018-09-15T01:33:24.238Z,13.71
2018-09-15T01:34:24.249Z,13.71
2018-09-15T01:35:24.221Z,13.74
2018-09-15T01:36:24.232Z,13.74
2018-09-15T01:37:24.191Z,13.63
2018-09-15T01:38:24.180Z,13.67
2018-09-15T01:39:24.173Z,13.60
2018-09-15T01:40:24.258Z,13.72
2018-09-15T01:41:24.150Z,13.79
2018-09-15T01:42:24.219Z,13.77
2018-09-15T01:43:24.125Z,13.68
2018-09-15T01:44:24.125Z,13.65
2018-09-15T01:45:24.110Z,13.70
2018-09-15T01:46:24.105Z,13.60
2018-09-15T01:47:24.107Z,13.62
2018-09-15T01:48:24.093Z,13.68
2018-09-15T01:49:24.063Z,13.67
2018-09-15T01:50:24.049Z,13.68
2018-09-15T01:51:24.038Z,13.65
2018-09-15T01:52:24.026Z,13.65
2018-09-15T01:53:24.058Z,13.70
2018-09-15T01:54:24.022Z,13.68
2018-09-15T01:55:24.000Z,13.63
2018-09-15T01:56:23.985Z,13.65
2018-09-15T01:57:24.070Z,13.65
2018-09-15T01:58:23.961Z,13.67
2018-09-15T01:59:23.978Z,13.68
2018-09-15T02:00:23.943Z,13.62
2018-09-15T02:01:23.929Z,13.75
2018-09-15T02:02:23.923Z,13.65
2018-09-15T02:03:23.918Z,13.62
2018-09-15T02:04:23.919Z,13.72
2018-09-15T02:05:23.907Z,13.72
2018-09-15T02:06:23.876Z,13.65
2018-09-15T02:07:23.865Z,13.65
2018-09-15T02:08:23.852Z,13.70
2018-09-15T02:09:23.843Z,13.59
2018-09-15T02:10:23.842Z,13.65
2018-09-15T02:11:23.855Z,13.60
2018-09-15T02:12:23.823Z,13.67
2018-09-15T02:13:23.798Z,13.70
2018-09-15T02:14:23.786Z,13.72
2018-09-15T02:15:23.776Z,13.65
2018-09-15T02:16:23.777Z,13.68
2018-09-15T02:17:23.786Z,13.68
2018-09-15T02:18:23.743Z,13.71
2018-09-15T02:19:23.744Z,13.68
2018-09-15T02:20:23.718Z,13.65
2018-09-15T02:21:23.716Z,13.71
2018-09-15T02:22:23.703Z,13.65
2018-09-15T02:23:23.724Z,13.67
2018-09-15T02:24:23.677Z,13.77
2018-09-15T02:25:23.694Z,13.72
2018-09-15T02:26:23.662Z,13.77
2018-09-15T02:27:23.644Z,13.74
2018-09-15T02:28:23.634Z,13.71
2018-09-15T02:29:23.638Z,13.75
2018-09-15T02:30:23.609Z,13.71
2018-09-15T02:31:23.626Z,13.77
2018-09-15T02:32:23.590Z,13.74
2018-09-15T02:33:23.582Z,13.70
2018-09-15T02:34:23.570Z,13.70
2018-09-15T02:35:23.555Z,13.72
2018-09-15T02:36:23.550Z,13.67
2018-09-15T02:37:23.555Z,13.62
2018-09-15T02:38:23.569Z,13.59
2018-09-15T02:39:23.509Z,13.53
2018-09-15T02:40:23.504Z,13.56
2018-09-15T02:41:23.491Z,13.52
2018-09-15T02:42:23.482Z,13.52
2018-09-15T02:43:23.480Z,13.52
2018-09-15T02:44:23.453Z,13.56
2018-09-15T02:45:23.512Z,13.57
2018-09-15T02:46:23.437Z,13.54
2018-09-15T02:47:23.436Z,13.49
2018-09-15T02:48:23.421Z,13.52
2018-09-15T02:49:23.413Z,13.47
2018-09-15T02:50:23.390Z,13.41
2018-09-15T02:51:23.378Z,13.42
2018-09-15T02:52:23.396Z,13.44
2018-09-15T02:53:23.353Z,13.38
2018-09-15T02:54:23.423Z,13.35
2018-09-15T02:55:23.338Z,13.33
2018-09-15T02:56:23.330Z,13.30
2018-09-15T02:57:23.321Z,13.23
2018-09-15T02:58:23.301Z,13.28
2018-09-15T02:59:23.288Z,13.28
2018-09-15T03:00:23.331Z,13.22
2018-09-15T03:01:23.274Z,13.33
2018-09-15T03:02:23.262Z,13.30
2018-09-15T03:03:23.246Z,13.27
2018-09-15T03:04:23.239Z,13.30
2018-09-15T03:05:23.231Z,13.13
2018-09-15T03:06:23.235Z,13.20
2018-09-15T03:07:23.202Z,13.22
2018-09-15T03:08:23.213Z,13.25
2018-09-15T03:09:23.179Z,13.31
2018-09-15T03:10:23.171Z,13.27
2018-09-15T03:11:23.158Z,13.18
2018-09-15T03:12:23.174Z,13.22
2018-09-15T03:13:23.157Z,13.19
2018-09-15T03:14:23.132Z,13.13
2018-09-15T03:15:23.151Z,13.13
2018-09-15T03:16:23.103Z,13.11
2018-09-15T03:17:23.091Z,13.11
2018-09-15T03:18:23.081Z,13.15
2018-09-15T03:19:23.085Z,13.13
2018-09-15T03:20:23.057Z,13.15
2018-09-15T03:21:23.062Z,13.15
2018-09-15T03:22:23.037Z,13.01
2018-09-15T03:23:23.033Z,12.95
2018-09-15T03:24:23.014Z,13.00
2018-09-15T03:25:23.025Z,12.95
2018-09-15T03:26:22.993Z,12.93
2018-09-15T03:27:22.982Z,12.95
2018-09-15T03:28:23.023Z,12.93
2018-09-15T03:29:22.959Z,12.91
2018-09-15T03:30:22.955Z,12.86
2018-09-15T03:31:22.957Z,12.83
2018-09-15T03:32:22.929Z,12.91
2018-09-15T03:33:22.920Z,12.93
2018-09-15T03:34:22.928Z,12.87
2018-09-15T03:35:22.898Z,12.79
2018-09-15T03:36:22.886Z,12.79
2018-09-15T03:37:22.907Z,12.83
2018-09-15T03:38:22.861Z,12.73
2018-09-15T03:39:22.847Z,12.76
2018-09-15T03:40:22.866Z,12.70
2018-09-15T03:41:22.875Z,12.79
2018-09-15T03:42:22.818Z,12.73
2018-09-15T03:43:22.833Z,12.80
2018-09-15T03:44:22.823Z,12.75
2018-09-15T03:45:22.782Z,12.76
2018-09-15T03:46:22.792Z,12.62
2018-09-15T03:47:22.778Z,12.57
2018-09-15T03:48:22.748Z,12.62
2018-09-15T03:49:22.806Z,12.60
2018-09-15T03:50:22.726Z,12.57
2018-09-15T03:51:22.718Z,12.55
2018-09-15T03:52:22.704Z,12.72
2018-09-15T03:53:22.692Z,12.61
2018-09-15T03:54:22.684Z,12.64
2018-09-15T03:55:22.688Z,12.61
2018-09-15T03:56:22.711Z,12.67
2018-09-15T03:57:22.660Z,12.61
2018-09-15T03:58:22.640Z,12.67
2018-09-15T03:59:22.629Z,12.72
2018-09-15T04:00:22.624Z,12.67
2018-09-15T04:01:22.640Z,12.64
2018-09-15T04:02:22.595Z,12.70
2018-09-15T04:03:22.633Z,12.62
2018-09-15T04:04:22.607Z,12.58
2018-09-15T04:05:22.571Z,12.64
2018-09-15T04:06:22.553Z,12.60
2018-09-15T04:07:22.559Z,12.55
2018-09-15T04:08:22.528Z,12.64
2018-09-15T04:09:22.520Z,12.62
2018-09-15T04:10:22.545Z,12.57
2018-09-15T04:11:22.496Z,12.58
2018-09-15T04:12:22.494Z,12.58
2018-09-15T04:13:22.493Z,12.57
2018-09-15T04:14:22.479Z,12.61
2018-09-15T04:15:22.453Z,12.58
2018-09-15T04:16:22.443Z,12.58
2018-09-15T04:17:22.461Z,12.60
2018-09-15T04:18:22.418Z,12.57
2018-09-15T04:19:22.425Z,12.58
2018-09-15T04:20:22.397Z,12.58
2018-09-15T04:21:22.384Z,12.53
2018-09-15T04:22:22.380Z,12.43
2018-09-15T04:23:22.413Z,12.53
2018-09-15T04:24:22.353Z,12.42
2018-09-15T04:25:22.373Z,12.53
2018-09-15T04:26:22.333Z,12.49
2018-09-15T04:27:22.321Z,12.55
2018-09-15T04:28:22.331Z,12.50
2018-09-15T04:29:22.347Z,12.43
2018-09-15T04:30:22.285Z,12.47
2018-09-15T04:31:22.291Z,12.46
2018-09-15T04:32:22.281Z,12.46
2018-09-15T04:33:22.291Z,12.42
2018-09-15T04:34:22.242Z,12.32
2018-09-15T04:35:22.233Z,12.39
2018-09-15T04:36:22.234Z,12.46
2018-09-15T04:37:22.230Z,12.49
2018-09-15T04:38:22.200Z,12.42
2018-09-15T04:39:22.190Z,12.47
2018-09-15T04:40:22.180Z,12.53
2018-09-15T04:41:22.164Z,12.47
2018-09-15T04:42:22.194Z,12.45
2018-09-15T04:43:22.162Z,12.45
2018-09-15T04:44:22.134Z,12.37
2018-09-15T04:45:22.141Z,12.39
2018-09-15T04:46:22.111Z,12.37
2018-09-15T04:47:22.103Z,12.39
2018-09-15T04:48:22.093Z,12.43
2018-09-15T04:49:22.119Z,12.43
2018-09-15T04:50:22.085Z,12.49
2018-09-15T04:51:22.058Z,12.45
2018-09-15T04:52:22.041Z,12.45
2018-09-15T04:53:22.036Z,12.49
2018-09-15T04:54:22.026Z,12.47
2018-09-15T04:55:22.008Z,12.53
2018-09-15T04:56:22.034Z,12.47
2018-09-15T04:57:22.012Z,12.57
2018-09-15T04:58:21.977Z,12.54
2018-09-15T04:59:21.977Z,12.49
2018-09-15T05:00:21.957Z,12.49
2018-09-15T05:01:21.947Z,12.49
2018-09-15T05:02:21.974Z,12.60
2018-09-15T05:03:21.949Z,12.50
2018-09-15T05:04:21.916Z,12.57
2018-09-15T05:05:21.902Z,12.47
2018-09-15T05:06:21.895Z,12.57
2018-09-15T05:07:21.891Z,12.61
2018-09-15T05:08:21.866Z,12.60
2018-09-15T05:09:21.899Z,12.55
2018-09-15T05:10:21.847Z,12.55
2018-09-15T05:11:21.838Z,12.60
2018-09-15T05:12:21.888Z,12.61
2018-09-15T05:13:21.815Z,12.50
2018-09-15T05:14:21.800Z,12.49
2018-09-15T05:15:21.844Z,12.53
2018-09-15T05:16:21.785Z,12.50
2018-09-15T05:17:21.793Z,12.55
2018-09-15T05:18:21.766Z,12.47
2018-09-15T05:19:21.747Z,12.43
2018-09-15T05:20:21.738Z,12.54
2018-09-15T05:21:21.785Z,12.46
2018-09-15T05:22:21.713Z,12.57
2018-09-15T05:23:21.718Z,12.46
2018-09-15T05:24:21.689Z,12.42
2018-09-15T05:25:21.695Z,12.47
2018-09-15T05:26:21.687Z,12.49
2018-09-15T05:27:21.674Z,12.42
2018-09-15T05:28:21.688Z,12.54
2018-09-15T05:29:21.654Z,12.46
2018-09-15T05:30:21.632Z,12.40
2018-09-15T05:31:21.656Z,12.46
2018-09-15T05:32:21.602Z,12.39
2018-09-15T05:33:21.595Z,12.37
2018-09-15T05:34:21.615Z,12.43
2018-09-15T05:35:21.588Z,12.39
2018-09-15T05:36:21.560Z,12.32
2018-09-15T05:37:21.550Z,12.43
2018-09-15T05:38:21.537Z,12.43
2018-09-15T05:39:21.534Z,12.45
2018-09-15T05:40:21.545Z,12.42
2018-09-15T05:41:21.524Z,12.50
2018-09-15T05:42:21.532Z,12.54
2018-09-15T05:43:21.481Z,12.54
2018-09-15T05:44:21.473Z,12.62
2018-09-15T05:45:21.464Z,12.60
2018-09-15T05:46:21.519Z,12.67
2018-09-15T05:47:21.451Z,12.58
2018-09-15T05:48:21.486Z,12.62
2018-09-15T05:49:21.419Z,12.67
2018-09-15T05:50:21.405Z,12.73
2018-09-15T05:51:21.413Z,12.78
2018-09-15T05:52:21.384Z,12.80
2018-09-15T05:53:21.373Z,12.78
2018-09-15T05:54:21.362Z,12.76
2018-09-15T05:55:21.409Z,12.80
2018-09-15T05:56:21.367Z,12.86
2018-09-15T05:57:21.350Z,12.93
2018-09-15T05:58:21.316Z,12.86
2018-09-15T05:59:21.302Z,13.01
2018-09-15T06:00:21.324Z,13.01
2018-09-15T06:01:21.324Z,12.97
2018-09-15T06:02:21.276Z,13.04
2018-09-15T06:03:21.285Z,13.05
2018-09-15T06:04:21.249Z,13.03
2018-09-15T06:05:21.237Z,13.04
2018-09-15T06:06:21.240Z,12.98
2018-09-15T06:07:21.250Z,13.13
2018-09-15T06:08:21.219Z,13.04
2018-09-15T06:09:21.208Z,13.12
2018-09-15T06:10:21.217Z,13.13
2018-09-15T06:11:21.177Z,13.15
2018-09-15T06:12:21.179Z,13.16
2018-09-15T06:13:21.176Z,13.19
2018-09-15T06:14:21.159Z,13.12
2018-09-15T06:15:21.133Z,13.18
2018-09-15T06:16:21.118Z,13.12
2018-09-15T06:17:21.105Z,13.12
2018-09-15T06:18:21.118Z,13.18
2018-09-15T06:19:21.118Z,13.16
2018-09-15T06:20:21.074Z,13.13
2018-09-15T06:21:21.061Z,13.18
2018-09-15T06:22:21.052Z,13.12
2018-09-15T06:23:21.046Z,13.15
2018-09-15T06:24:21.047Z,13.13
2018-09-15T06:25:21.084Z,13.27
2018-09-15T06:26:21.012Z,13.27
2018-09-15T06:27:21.004Z,13.33
2018-09-15T06:28:20.989Z,13.23
2018-09-15T06:29:21.045Z,13.25
2018-09-15T06:30:20.976Z,13.35
2018-09-15T06:31:20.962Z,13.20
2018-09-15T06:32:20.969Z,13.33
2018-09-15T06:33:20.937Z,13.35
2018-09-15T06:34:20.963Z,13.33
2018-09-15T06:35:20.921Z,13.35
2018-09-15T06:36:20.938Z,13.33
2018-09-15T06:37:20.929Z,13.37
2018-09-15T06:38:20.873Z,13.44
2018-09-15T06:39:20.900Z,13.38
2018-09-15T06:40:20.856Z,13.44
2018-09-15T06:41:20.843Z,13.41
2018-09-15T06:42:20.858Z,13.42
2018-09-15T06:43:20.855Z,13.53
2018-09-15T06:44:20.814Z,13.54
2018-09-15T06:45:20.851Z,13.54
2018-09-15T06:46:20.789Z,13.53
2018-09-15T06:47:20.783Z,13.56
2018-09-15T06:48:20.780Z,13.56
2018-09-15T06:49:20.776Z,13.56
2018-09-15T06:50:20.762Z,13.65
2018-09-15T06:51:20.738Z,13.65
2018-09-15T06:52:20.721Z,13.65
2018-09-15T06:53:20.710Z,13.65
2018-09-15T06:54:20.704Z,13.71
2018-09-15T06:55:20.738Z,13.70
2018-09-15T06:56:20.678Z,13.75
2018-09-15T06:57:20.666Z,13.68
2018-09-15T06:58:20.708Z,13.71
2018-09-15T06:59:20.651Z,13.70
2018-09-15T07:00:20.638Z,13.72
2018-09-15T07:01:20.654Z,13.67
2018-09-15T07:02:20.711Z,13.70
2018-09-15T07:03:20.606Z,13.78
2018-09-15T07:04:20.593Z,13.81
2018-09-15T07:05:20.601Z,13.95
2018-09-15T07:06:20.567Z,13.79
2018-09-15T07:07:20.583Z,13.78
2018-09-15T07:08:20.561Z,13.86
2018-09-15T07:09:20.547Z,13.70
2018-09-15T07:10:20.542Z,13.71
2018-09-15T07:11:20.520Z,13.77
2018-09-15T07:12:20.506Z,13.81
2018-09-15T07:13:20.524Z,13.87
2018-09-15T07:14:20.479Z,13.92
2018-09-15T07:15:20.534Z,13.95
2018-09-15T07:16:20.463Z,13.87
2018-09-15T07:17:20.445Z,13.97
2018-09-15T07:18:20.474Z,13.93
2018-09-15T07:19:20.439Z,13.96
2018-09-15T07:20:20.418Z,13.89
2018-09-15T07:21:20.422Z,13.96
2018-09-15T07:22:20.454Z,13.99
2018-09-15T07:23:20.401Z,14.00
2018-09-15T07:24:20.376Z,14.04
2018-09-15T07:25:20.361Z,14.03
2018-09-15T07:26:20.346Z,14.11
2018-09-15T07:27:20.341Z,14.15
2018-09-15T07:28:20.325Z,14.10
2018-09-15T07:29:20.342Z,14.12
2018-09-15T07:30:20.331Z,14.18
2018-09-15T07:31:20.358Z,14.22
2018-09-15T07:32:20.282Z,14.18
2018-09-15T07:33:20.273Z,14.18
2018-09-15T07:34:20.259Z,14.22
2018-09-15T07:35:20.272Z,14.28
2018-09-15T07:36:20.295Z,14.23
2018-09-15T07:37:20.236Z,14.20
2018-09-15T07:38:20.237Z,14.30
2018-09-15T07:39:20.214Z,14.32
2018-09-15T07:40:20.194Z,14.35
2018-09-15T07:41:20.219Z,14.32
2018-09-15T07:42:20.208Z,14.43
2018-09-15T07:43:20.159Z,14.43
2018-09-15T07:44:20.153Z,14.45
2018-09-15T07:45:20.146Z,14.44
2018-09-15T07:46:20.133Z,14.53
2018-09-15T07:47:20.130Z,14.53
2018-09-15T07:48:20.165Z,14.47
2018-09-15T07:49:20.093Z,14.48
2018-09-15T07:50:20.084Z,14.58
2018-09-15T07:51:20.083Z,14.65
2018-09-15T07:52:20.263Z,14.62
2018-09-15T07:53:20.093Z,14.69
2018-09-15T07:54:20.042Z,14.72
2018-09-15T07:55:20.068Z,14.70
2018-09-15T07:56:20.036Z,14.69
2018-09-15T07:57:20.027Z,14.70
2018-09-15T07:58:20.039Z,14.79
2018-09-15T07:59:20.003Z,14.81
2018-09-15T08:00:19.976Z,14.82
2018-09-15T08:01:20.003Z,14.79
2018-09-15T08:02:19.959Z,14.84
2018-09-15T08:03:19.949Z,14.86
2018-09-15T08:04:19.943Z,14.89
2018-09-15T08:05:19.935Z,15.00
2018-09-15T08:06:19.914Z,15.00
2018-09-15T08:07:19.915Z,14.85
2018-09-15T08:08:19.910Z,14.84
2018-09-15T08:09:19.872Z,14.89
2018-09-15T08:10:19.870Z,14.84
2018-09-15T08:11:19.879Z,14.99
2018-09-15T08:12:19.847Z,15.02
2018-09-15T08:13:19.829Z,15.03
2018-09-15T08:14:19.843Z,15.04
2018-09-15T08:15:19.948Z,15.00
2018-09-15T08:16:19.797Z,15.03
2018-09-15T08:17:19.786Z,15.02
2018-09-15T08:18:19.775Z,15.03
2018-09-15T08:19:19.792Z,15.00
2018-09-15T08:20:19.753Z,14.96
2018-09-15T08:21:19.759Z,14.88
2018-09-15T08:22:19.761Z,14.94
2018-09-15T08:23:19.721Z,15.03
2018-09-15T08:24:19.712Z,14.99
2018-09-15T08:25:19.697Z,15.06
2018-09-15T08:26:19.756Z,15.07
2018-09-15T08:27:19.869Z,15.17
2018-09-15T08:28:19.673Z,15.09
2018-09-15T08:29:19.650Z,15.18
2018-09-15T08:30:19.641Z,15.24
2018-09-15T08:31:19.633Z,15.24
2018-09-15T08:32:19.621Z,15.39
2018-09-15T08:33:19.637Z,15.52
2018-09-15T08:34:19.595Z,15.62
2018-09-15T08:35:19.585Z,15.79
2018-09-15T08:36:19.575Z,16.02
2018-09-15T08:37:19.586Z,16.26
2018-09-15T08:38:19.553Z,16.49
2018-09-15T08:39:19.581Z,16.46
2018-09-15T08:40:19.528Z,16.46
2018-09-15T08:41:19.541Z,16.32
2018-09-15T08:42:19.508Z,16.15
2018-09-15T08:43:19.528Z,16.09
2018-09-15T08:44:19.485Z,16.01
2018-09-15T08:45:19.490Z,15.91
2018-09-15T08:46:19.474Z,16.00
2018-09-15T08:47:19.507Z,15.88
2018-09-15T08:48:19.500Z,15.94
2018-09-15T08:49:19.432Z,15.84
2018-09-15T08:50:19.452Z,15.83
2018-09-15T08:51:19.436Z,15.83
2018-09-15T08:52:19.394Z,15.80
2018-09-15T08:53:19.389Z,15.92
2018-09-15T08:54:19.440Z,15.90
2018-09-15T08:55:19.405Z,15.91
2018-09-15T08:56:19.443Z,15.97
2018-09-15T08:57:19.472Z,16.38
2018-09-15T08:58:19.330Z,16.50
2018-09-15T08:59:19.345Z,16.57
2018-09-15T09:00:19.352Z,16.61
2018-09-15T09:01:19.305Z,16.43
2018-09-15T09:02:19.304Z,16.20
2018-09-15T09:03:19.281Z,16.26
2018-09-15T09:04:19.266Z,16.36
2018-09-15T09:05:19.316Z,16.66
2018-09-15T09:06:19.282Z,16.87
2018-09-15T09:07:19.229Z,17.02
2018-09-15T09:08:19.233Z,17.09
2018-09-15T09:09:19.206Z,16.91
2018-09-15T09:10:19.212Z,16.86
2018-09-15T09:11:19.219Z,16.64
2018-09-15T09:12:19.174Z,16.57
2018-09-15T09:13:19.165Z,16.56
2018-09-15T09:14:19.180Z,16.50
2018-09-15T09:15:19.145Z,16.60
2018-09-15T09:16:19.128Z,16.58
2018-09-15T09:17:19.153Z,16.49
2018-09-15T09:18:19.176Z,16.47
2018-09-15T09:19:21.673Z,16.46
2018-09-15T09:20:28.045Z,16.65
2018-09-15T09:21:19.083Z,16.78
2018-09-15T09:22:19.107Z,16.81
2018-09-15T09:23:19.061Z,16.76
2018-09-15T09:24:19.078Z,16.75
2018-09-15T09:25:19.234Z,16.78
2018-09-15T09:26:19.124Z,16.87
2018-09-15T09:27:19.052Z,16.94
2018-09-15T09:28:19.018Z,16.96
2018-09-15T09:29:19.038Z,16.94
2018-09-15T09:30:19.020Z,16.97
2018-09-15T09:31:18.963Z,17.05
2018-09-15T09:32:18.997Z,17.19
2018-09-15T09:33:19.008Z,17.34
2018-09-15T09:34:18.951Z,17.63
2018-09-15T09:35:18.916Z,17.64
2018-09-15T09:36:18.990Z,17.72
2018-09-15T09:37:18.923Z,17.57
2018-09-15T09:38:18.957Z,17.51
2018-09-15T09:39:18.872Z,17.44
2018-09-15T09:40:18.883Z,17.63
2018-09-15T09:41:18.862Z,17.63
2018-09-15T09:42:18.854Z,17.34
2018-09-15T09:43:18.835Z,17.24
2018-09-15T09:44:18.819Z,17.12
2018-09-15T09:45:18.807Z,17.14
2018-09-15T09:46:18.818Z,17.29
2018-09-15T09:47:18.789Z,17.34
2018-09-15T09:48:18.820Z,17.64
2018-09-15T09:49:18.820Z,17.79
2018-09-15T09:50:18.757Z,17.79
2018-09-15T09:51:18.748Z,17.71
2018-09-15T09:52:18.753Z,17.80
2018-09-15T09:53:18.725Z,17.89
2018-09-15T09:54:18.710Z,18.01
2018-09-15T09:55:18.742Z,18.03
2018-09-15T09:56:18.710Z,18.10
2018-09-15T09:57:18.676Z,18.16
2018-09-15T09:58:18.689Z,18.08
2018-09-15T09:59:18.654Z,18.11
2018-09-15T10:00:18.641Z,18.25
2018-09-15T10:01:18.652Z,18.20
2018-09-15T10:02:18.676Z,18.03
2018-09-15T10:03:18.610Z,17.95
2018-09-15T10:04:18.612Z,17.95
2018-09-15T10:05:18.591Z,18.11
2018-09-15T10:06:18.585Z,18.22
2018-09-15T10:07:18.564Z,18.34
2018-09-15T10:08:18.557Z,18.45
2018-09-15T10:09:18.599Z,18.55
2018-09-15T10:10:18.535Z,18.63
2018-09-15T10:11:18.550Z,18.40
2018-09-15T10:12:18.511Z,18.40
2018-09-15T10:13:18.501Z,18.65
2018-09-15T10:14:18.487Z,18.59
2018-09-15T10:15:18.532Z,18.47
2018-09-15T10:16:18.508Z,18.40
2018-09-15T10:17:18.457Z,18.43
2018-09-15T10:18:18.446Z,18.60
2018-09-15T10:19:18.456Z,18.95
2018-09-15T10:20:18.423Z,19.22
2018-09-15T10:21:18.507Z,19.45
2018-09-15T10:22:18.410Z,19.54
2018-09-15T10:23:18.393Z,19.64
2018-09-15T10:24:18.377Z,19.64
2018-09-15T10:25:18.375Z,19.74
2018-09-15T10:26:18.378Z,19.70
2018-09-15T10:27:18.395Z,19.81
2018-09-15T10:28:18.355Z,19.69
2018-09-15T10:29:18.324Z,19.45
2018-09-15T10:30:18.321Z,19.52
2018-09-15T10:31:18.301Z,19.49
2018-09-15T10:32:18.293Z,19.54
2018-09-15T10:33:18.296Z,19.51
2018-09-15T10:34:18.309Z,19.73
2018-09-15T10:35:18.259Z,19.49
2018-09-15T10:36:18.246Z,19.31
2018-09-15T10:37:18.242Z,19.29
2018-09-15T10:38:18.255Z,18.99
2018-09-15T10:39:18.227Z,18.95
2018-09-15T10:40:18.221Z,18.77
2018-09-15T10:41:18.212Z,18.65
2018-09-15T10:42:18.183Z,18.63
2018-09-15T10:43:18.171Z,18.49
2018-09-15T10:44:18.162Z,18.33
2018-09-15T10:45:18.165Z,18.31
2018-09-15T10:46:18.141Z,18.33
2018-09-15T10:47:18.156Z,18.34
2018-09-15T10:48:18.142Z,18.35
2018-09-15T10:49:18.111Z,18.43
2018-09-15T10:50:18.096Z,18.41
2018-09-15T10:51:18.093Z,18.33
2018-09-15T10:52:18.092Z,18.37
2018-09-15T10:53:18.076Z,18.44
2018-09-15T10:54:18.074Z,18.43
2018-09-15T10:55:18.043Z,18.34
2018-09-15T10:56:18.027Z,18.23
2018-09-15T10:57:18.023Z,18.23
2018-09-15T10:58:18.023Z,18.20
2018-09-15T10:59:17.994Z,18.08
2018-09-15T11:00:18.047Z,18.01
2018-09-15T11:01:17.986Z,17.86
2018-09-15T11:02:17.962Z,17.85
2018-09-15T11:03:17.966Z,17.87
2018-09-15T11:04:17.939Z,17.72
2018-09-15T11:05:17.933Z,17.80
2018-09-15T11:06:17.957Z,17.78
2018-09-15T11:07:17.910Z,17.80
2018-09-15T11:08:17.909Z,17.79
2018-09-15T11:09:17.903Z,17.78
2018-09-15T11:10:17.887Z,17.74
2018-09-15T11:11:17.866Z,17.71
2018-09-15T11:12:17.912Z,17.63
2018-09-15T11:13:17.918Z,17.68
2018-09-15T11:14:17.835Z,17.70
2018-09-15T11:15:17.869Z,17.72
2018-09-15T11:16:17.807Z,17.82
2018-09-15T11:17:17.839Z,17.95
2018-09-15T11:18:17.806Z,17.92
2018-09-15T11:19:17.775Z,18.05
2018-09-15T11:20:17.772Z,18.03
2018-09-15T11:21:17.774Z,18.04
2018-09-15T11:22:17.747Z,18.00
2018-09-15T11:23:17.737Z,17.95
2018-09-15T11:24:17.724Z,17.92
2018-09-15T11:25:17.717Z,17.83
2018-09-15T11:26:17.703Z,17.76
2018-09-15T11:27:17.716Z,17.78
2018-09-15T11:28:17.686Z,17.79
2018-09-15T11:29:17.717Z,17.98
2018-09-15T11:30:17.669Z,18.05
2018-09-15T11:31:17.696Z,18.26
2018-09-15T11:32:17.645Z,18.11
2018-09-15T11:33:17.662Z,18.13
2018-09-15T11:34:17.618Z,18.15
2018-09-15T11:35:17.650Z,18.05
2018-09-15T11:36:17.593Z,18.15
2018-09-15T11:37:17.596Z,18.18
2018-09-15T11:38:17.581Z,18.07
2018-09-15T11:39:17.576Z,18.07
2018-09-15T11:40:17.558Z,18.00
2018-09-15T11:41:17.687Z,17.97
2018-09-15T11:42:17.532Z,17.83
2018-09-15T11:43:17.516Z,17.80
2018-09-15T11:44:17.509Z,17.80
2018-09-15T11:45:17.527Z,17.85
2018-09-15T11:46:17.487Z,17.68
2018-09-15T11:47:17.468Z,17.70
2018-09-15T11:48:17.459Z,17.74
2018-09-15T11:49:17.495Z,17.56
2018-09-15T11:50:17.449Z,17.49
2018-09-15T11:51:17.485Z,17.56
2018-09-15T11:52:17.428Z,17.67
2018-09-15T11:53:17.409Z,17.57
2018-09-15T11:54:17.396Z,17.63
2018-09-15T11:55:17.418Z,17.57
2018-09-15T11:56:17.377Z,17.63
2018-09-15T11:57:17.378Z,17.63
2018-09-15T11:58:17.349Z,17.46
2018-09-15T11:59:17.351Z,17.57
2018-09-15T12:00:17.374Z,17.64
2018-09-15T12:01:17.317Z,17.72
2018-09-15T12:02:17.310Z,17.72
2018-09-15T12:03:17.310Z,17.85
2018-09-15T12:04:17.280Z,17.97
2018-09-15T12:05:17.274Z,18.03
2018-09-15T12:06:17.270Z,18.07
2018-09-15T12:07:17.252Z,18.08
2018-09-15T12:08:17.244Z,18.22
2018-09-15T12:09:17.309Z,18.31
2018-09-15T12:10:17.212Z,18.37
2018-09-15T12:11:17.226Z,18.22
2018-09-15T12:12:17.195Z,18.29
2018-09-15T12:13:17.189Z,18.41
2018-09-15T12:14:17.184Z,18.41
2018-09-15T12:15:17.177Z,18.40
2018-09-15T12:16:17.156Z,18.41
2018-09-15T12:17:17.143Z,18.78
2018-09-15T12:18:17.168Z,18.83
2018-09-15T12:19:17.116Z,18.88
2018-09-15T12:20:17.147Z,18.81
2018-09-15T12:21:17.149Z,18.90
2018-09-15T12:22:17.084Z,18.83
2018-09-15T12:23:17.093Z,18.89
2018-09-15T12:24:17.065Z,18.86
2018-09-15T12:25:17.062Z,18.95
2018-09-15T12:26:17.071Z,18.92
2018-09-15T12:27:17.087Z,19.02
2018-09-15T12:28:17.043Z,19.14
2018-09-15T12:29:17.013Z,19.16
2018-09-15T12:30:16.996Z,19.04
2018-09-15T12:31:17.041Z,19.18
2018-09-15T12:32:17.021Z,19.04
2018-09-15T12:33:17.012Z,18.93
2018-09-15T12:34:16.952Z,19.02
2018-09-15T12:35:16.945Z,19.08
2018-09-15T12:36:16.962Z,18.96
2018-09-15T12:37:16.920Z,19.07
2018-09-15T12:38:16.926Z,19.18
2018-09-15T12:39:16.913Z,19.27
2018-09-15T12:40:24.830Z,19.31
2018-09-15T12:41:16.880Z,19.39
2018-09-15T12:42:16.879Z,19.33
2018-09-15T12:43:16.863Z,19.39
2018-09-15T12:44:16.901Z,19.51
2018-09-15T12:45:16.935Z,19.63
2018-09-15T12:46:16.822Z,19.67
2018-09-15T12:47:16.810Z,19.73
2018-09-15T12:48:16.884Z,19.77
2018-09-15T12:49:16.787Z,19.56
2018-09-15T12:50:25.838Z,19.81
2018-09-15T12:51:16.766Z,20.04
2018-09-15T12:52:16.765Z,20.16